SWA366 KMCO-KBUF
Flight info
| Callsign | SWA366 |
|---|---|
| Flight time | 2h 13m |
| Altitude | 37000 |
| Route | FATHE4 VIYAP Q69 RICCS EWC DKK |
| Aircraft | B38M/M-SDE1FGHILORVWXY/HB1 |
Departure
| Time | 2026-05-08 15:42 |
|---|---|
| Airport | Orlando International Airport (KMCO) |
Arrival
| Time | 2026-05-08 17:56 |
|---|---|
| Airport | Buffalo Niagara International Airport (KBUF) |
| Time | Latitude | Longitude | Altitude | Speed | Heading |
|---|---|---|---|---|---|
| 2026-05-08 15:06 | 28.43585 | -81.30377 | 103 ft | 0 kts | 131° |
| 2026-05-08 15:33 | 28.43586 | -81.30377 | 103 ft | 1 kts | 131° |
| 2026-05-08 15:33 | 28.43598 | -81.30397 | 101 ft | 4 kts | 108° |
| 2026-05-08 15:33 | 28.43598 | -81.30423 | 101 ft | 4 kts | 59° |
| 2026-05-08 15:34 | 28.43590 | -81.30434 | 101 ft | 1 kts | 38° |
| 2026-05-08 15:36 | 28.43603 | -81.30422 | 101 ft | 5 kts | 38° |
| 2026-05-08 15:37 | 28.43641 | -81.30379 | 103 ft | 10 kts | 51° |
| 2026-05-08 15:37 | 28.43697 | -81.30297 | 103 ft | 16 kts | 51° |
| 2026-05-08 15:37 | 28.43777 | -81.30183 | 102 ft | 21 kts | 51° |
| 2026-05-08 15:37 | 28.43825 | -81.30025 | 104 ft | 23 kts | 98° |
| 2026-05-08 15:38 | 28.43707 | -81.29895 | 105 ft | 27 kts | 171° |
| 2026-05-08 15:38 | 28.43553 | -81.29838 | 106 ft | 19 kts | 115° |
| 2026-05-08 15:38 | 28.43429 | -81.29806 | 106 ft | 22 kts | 180° |
| 2026-05-08 15:38 | 28.43253 | -81.29802 | 106 ft | 29 kts | 182° |
| 2026-05-08 15:39 | 28.43029 | -81.29799 | 106 ft | 36 kts | 180° |
| 2026-05-08 15:39 | 28.42761 | -81.29798 | 105 ft | 40 kts | 179° |
| 2026-05-08 15:39 | 28.42476 | -81.29795 | 105 ft | 41 kts | 180° |
| 2026-05-08 15:39 | 28.42191 | -81.29791 | 105 ft | 41 kts | 179° |
| 2026-05-08 15:40 | 28.41904 | -81.29788 | 104 ft | 41 kts | 179° |
| 2026-05-08 15:40 | 28.41614 | -81.29786 | 104 ft | 42 kts | 180° |
| 2026-05-08 15:40 | 28.41396 | -81.29782 | 104 ft | 15 kts | 181° |
| 2026-05-08 15:40 | 28.41260 | -81.29783 | 104 ft | 24 kts | 180° |
| 2026-05-08 15:41 | 28.41057 | -81.29779 | 103 ft | 34 kts | 179° |
| 2026-05-08 15:41 | 28.40838 | -81.29757 | 102 ft | 24 kts | 134° |
| 2026-05-08 15:41 | 28.40853 | -81.29571 | 100 ft | 28 kts | 33° |
| 2026-05-08 15:41 | 28.41124 | -81.29563 | 102 ft | 70 kts | 359° |
| 2026-05-08 15:42 | 28.41895 | -81.29570 | 106 ft | 148 kts | 359° |
| 2026-05-08 15:42 | 28.43125 | -81.29570 | 288 ft | 198 kts | 358° |
| 2026-05-08 15:42 | 28.44673 | -81.29676 | 684 ft | 247 kts | 359° |
| 2026-05-08 15:42 | 28.46273 | -81.29045 | 2046 ft | 235 kts | 38° |
| 2026-05-08 15:43 | 28.47574 | -81.27910 | 3268 ft | 243 kts | 31° |
| 2026-05-08 15:43 | 28.49089 | -81.26893 | 3964 ft | 262 kts | 28° |
| 2026-05-08 15:43 | 28.50724 | -81.25835 | 4780 ft | 274 kts | 24° |
| 2026-05-08 15:43 | 28.52526 | -81.25333 | 5845 ft | 272 kts | 2° |
| 2026-05-08 15:44 | 28.54431 | -81.25183 | 6811 ft | 277 kts | 2° |
| 2026-05-08 15:44 | 28.56370 | -81.25172 | 7737 ft | 281 kts | 356° |
| 2026-05-08 15:44 | 28.58344 | -81.25234 | 8601 ft | 286 kts | 353° |
| 2026-05-08 15:44 | 28.60334 | -81.25521 | 9482 ft | 291 kts | 349° |
| 2026-05-08 15:45 | 28.62360 | -81.25828 | 10312 ft | 298 kts | 349° |
| 2026-05-08 15:45 | 28.64480 | -81.26136 | 10789 ft | 317 kts | 349° |
| 2026-05-08 15:45 | 28.66739 | -81.26454 | 11168 ft | 336 kts | 349° |
| 2026-05-08 15:45 | 28.69104 | -81.26781 | 11673 ft | 349 kts | 349° |
| 2026-05-08 15:46 | 28.71532 | -81.27115 | 12438 ft | 352 kts | 349° |
| 2026-05-08 15:46 | 28.73981 | -81.27451 | 13181 ft | 357 kts | 348° |
| 2026-05-08 15:46 | 28.76460 | -81.27791 | 13909 ft | 360 kts | 348° |
| 2026-05-08 15:46 | 28.78964 | -81.28134 | 14550 ft | 364 kts | 348° |
| 2026-05-08 15:47 | 28.81454 | -81.28475 | 15187 ft | 367 kts | 348° |
| 2026-05-08 15:47 | 28.84004 | -81.28801 | 15799 ft | 371 kts | 350° |
| 2026-05-08 15:47 | 28.86597 | -81.29022 | 16417 ft | 375 kts | 350° |
| 2026-05-08 15:47 | 28.89214 | -81.29249 | 17017 ft | 378 kts | 350° |
| 2026-05-08 15:48 | 28.94509 | -81.29717 | 18208 ft | 385 kts | 349° |
| 2026-05-08 15:48 | 28.97191 | -81.29956 | 18746 ft | 388 kts | 349° |
| 2026-05-08 15:48 | 28.99893 | -81.30229 | 19260 ft | 391 kts | 348° |
| 2026-05-08 15:49 | 29.02609 | -81.30526 | 19780 ft | 393 kts | 348° |
| 2026-05-08 15:49 | 29.05347 | -81.30825 | 20309 ft | 395 kts | 348° |
| 2026-05-08 15:49 | 29.08054 | -81.31120 | 20807 ft | 398 kts | 348° |
| 2026-05-08 15:49 | 29.10822 | -81.31381 | 21316 ft | 402 kts | 350° |
| 2026-05-08 15:50 | 29.13626 | -81.31539 | 21812 ft | 404 kts | 350° |
| 2026-05-08 15:50 | 29.16447 | -81.31704 | 22298 ft | 407 kts | 350° |
| 2026-05-08 15:50 | 29.19274 | -81.31874 | 22767 ft | 409 kts | 349° |
| 2026-05-08 15:50 | 29.22133 | -81.32047 | 23228 ft | 412 kts | 349° |
| 2026-05-08 15:51 | 29.25003 | -81.32222 | 23676 ft | 414 kts | 349° |
| 2026-05-08 15:51 | 29.27898 | -81.32399 | 24062 ft | 417 kts | 349° |
| 2026-05-08 15:51 | 29.30809 | -81.32577 | 24396 ft | 421 kts | 349° |
| 2026-05-08 15:51 | 29.33743 | -81.32757 | 24799 ft | 423 kts | 349° |
| 2026-05-08 15:52 | 29.36694 | -81.32938 | 25174 ft | 426 kts | 349° |
| 2026-05-08 15:52 | 29.39626 | -81.33118 | 25530 ft | 428 kts | 349° |
| 2026-05-08 15:52 | 29.42620 | -81.33302 | 25906 ft | 431 kts | 349° |
| 2026-05-08 15:52 | 29.45611 | -81.33486 | 26269 ft | 433 kts | 349° |
| 2026-05-08 15:53 | 29.48643 | -81.33673 | 26625 ft | 436 kts | 349° |
| 2026-05-08 15:53 | 29.51680 | -81.33860 | 26978 ft | 439 kts | 349° |
| 2026-05-08 15:53 | 29.54736 | -81.34049 | 27326 ft | 441 kts | 349° |
| 2026-05-08 15:53 | 29.57811 | -81.34239 | 27650 ft | 444 kts | 349° |
| 2026-05-08 15:54 | 29.60905 | -81.34430 | 27962 ft | 447 kts | 349° |
| 2026-05-08 15:54 | 29.63972 | -81.34613 | 28281 ft | 449 kts | 349° |
| 2026-05-08 15:54 | 29.67109 | -81.34792 | 28597 ft | 452 kts | 349° |
| 2026-05-08 15:54 | 29.70244 | -81.34971 | 28908 ft | 454 kts | 349° |
| 2026-05-08 15:55 | 29.73412 | -81.35153 | 29236 ft | 457 kts | 349° |
| 2026-05-08 15:55 | 29.79793 | -81.35519 | 29835 ft | 461 kts | 349° |
| 2026-05-08 15:55 | 29.83011 | -81.35703 | 30125 ft | 464 kts | 349° |
| 2026-05-08 15:56 | 29.86254 | -81.35890 | 30395 ft | 466 kts | 348° |
| 2026-05-08 15:56 | 29.88406 | -81.36014 | 30550 ft | 468 kts | 348° |
| 2026-05-08 15:56 | 29.91662 | -81.36201 | 30825 ft | 469 kts | 348° |
| 2026-05-08 15:56 | 29.94915 | -81.36389 | 31071 ft | 471 kts | 348° |
| 2026-05-08 15:57 | 29.98194 | -81.36578 | 31332 ft | 473 kts | 348° |
| 2026-05-08 15:57 | 30.02549 | -81.36829 | 31725 ft | 473 kts | 348° |
| 2026-05-08 15:57 | 30.04769 | -81.36957 | 31962 ft | 473 kts | 348° |
| 2026-05-08 15:57 | 30.08056 | -81.37147 | 32320 ft | 472 kts | 348° |
| 2026-05-08 15:58 | 30.11329 | -81.37336 | 32686 ft | 471 kts | 348° |
| 2026-05-08 15:58 | 30.14565 | -81.37523 | 33110 ft | 469 kts | 347° |
| 2026-05-08 15:58 | 30.17820 | -81.37711 | 33489 ft | 467 kts | 347° |
| 2026-05-08 15:58 | 30.21049 | -81.37898 | 33862 ft | 466 kts | 346° |
| 2026-05-08 15:59 | 30.24286 | -81.38086 | 34211 ft | 465 kts | 346° |
| 2026-05-08 15:59 | 30.27517 | -81.38273 | 34548 ft | 464 kts | 346° |
| 2026-05-08 15:59 | 30.30733 | -81.38459 | 34883 ft | 462 kts | 346° |
| 2026-05-08 15:59 | 30.33933 | -81.38645 | 35197 ft | 460 kts | 346° |
| 2026-05-08 16:00 | 30.37128 | -81.38831 | 35522 ft | 458 kts | 346° |
| 2026-05-08 16:00 | 30.40305 | -81.39015 | 35826 ft | 457 kts | 346° |
| 2026-05-08 16:00 | 30.43466 | -81.39199 | 36125 ft | 455 kts | 345° |
| 2026-05-08 16:00 | 30.46630 | -81.39371 | 36411 ft | 454 kts | 346° |
| 2026-05-08 16:01 | 30.49777 | -81.39537 | 36702 ft | 452 kts | 345° |
| 2026-05-08 16:01 | 30.52922 | -81.39703 | 37018 ft | 450 kts | 345° |
| 2026-05-08 16:01 | 30.56010 | -81.39867 | 37123 ft | 449 kts | 345° |
| 2026-05-08 16:01 | 30.59124 | -81.40031 | 37084 ft | 446 kts | 345° |
| 2026-05-08 16:02 | 30.65305 | -81.40359 | 37095 ft | 445 kts | 345° |
| 2026-05-08 16:02 | 30.71476 | -81.40687 | 37096 ft | 444 kts | 345° |
| 2026-05-08 16:03 | 30.77641 | -81.41015 | 37089 ft | 443 kts | 345° |
| 2026-05-08 16:03 | 30.83808 | -81.41344 | 37094 ft | 444 kts | 345° |
| 2026-05-08 16:04 | 30.89974 | -81.41673 | 37084 ft | 443 kts | 345° |
| 2026-05-08 16:04 | 30.96129 | -81.42001 | 37114 ft | 444 kts | 344° |
| 2026-05-08 16:05 | 31.02276 | -81.42330 | 37076 ft | 441 kts | 344° |
| 2026-05-08 16:05 | 31.08417 | -81.42659 | 37085 ft | 442 kts | 344° |
| 2026-05-08 16:06 | 31.14513 | -81.42985 | 37077 ft | 441 kts | 344° |
| 2026-05-08 16:06 | 31.20636 | -81.43314 | 37090 ft | 441 kts | 344° |
| 2026-05-08 16:07 | 31.26795 | -81.43538 | 37085 ft | 444 kts | 346° |
| 2026-05-08 16:07 | 31.32966 | -81.43617 | 37097 ft | 443 kts | 345° |
| 2026-05-08 16:08 | 31.39134 | -81.43706 | 37093 ft | 443 kts | 345° |
| 2026-05-08 16:08 | 31.45249 | -81.43791 | 37091 ft | 445 kts | 347° |
| 2026-05-08 16:09 | 31.48393 | -81.43312 | 37065 ft | 471 kts | 2° |
| 2026-05-08 16:09 | 31.51552 | -81.42102 | 37151 ft | 479 kts | 5° |
| 2026-05-08 16:09 | 31.57885 | -81.39586 | 37080 ft | 481 kts | 6° |
| 2026-05-08 16:10 | 31.64223 | -81.36992 | 37097 ft | 482 kts | 6° |
| 2026-05-08 16:10 | 31.70543 | -81.34393 | 37093 ft | 482 kts | 6° |
| 2026-05-08 16:11 | 31.76873 | -81.31784 | 37094 ft | 482 kts | 6° |
| 2026-05-08 16:11 | 31.83152 | -81.29193 | 37074 ft | 480 kts | 5° |
| 2026-05-08 16:12 | 31.89460 | -81.26587 | 37072 ft | 480 kts | 6° |
| 2026-05-08 16:12 | 31.95751 | -81.24118 | 37057 ft | 464 kts | 356° |
| 2026-05-08 16:13 | 31.98859 | -81.23756 | 37098 ft | 443 kts | 349° |
| 2026-05-08 16:13 | 32.01962 | -81.23539 | 37041 ft | 447 kts | 349° |
| 2026-05-08 16:13 | 32.05064 | -81.23341 | 37158 ft | 446 kts | 349° |
| 2026-05-08 16:13 | 32.08126 | -81.23169 | 37134 ft | 446 kts | 348° |
| 2026-05-08 16:14 | 32.14306 | -81.22853 | 37112 ft | 444 kts | 348° |
| 2026-05-08 16:14 | 32.20480 | -81.22546 | 37109 ft | 445 kts | 348° |
| 2026-05-08 16:15 | 32.26676 | -81.22237 | 37107 ft | 445 kts | 348° |
| 2026-05-08 16:15 | 32.32864 | -81.21928 | 37137 ft | 445 kts | 348° |
| 2026-05-08 16:16 | 32.39059 | -81.21619 | 37100 ft | 445 kts | 348° |
| 2026-05-08 16:16 | 32.45196 | -81.21312 | 37099 ft | 445 kts | 348° |
| 2026-05-08 16:17 | 32.50425 | -81.20671 | 37107 ft | 461 kts | 357° |
| 2026-05-08 16:17 | 32.57755 | -81.19001 | 37098 ft | 462 kts | 357° |
| 2026-05-08 16:18 | 32.64069 | -81.17549 | 37102 ft | 461 kts | 356° |
| 2026-05-08 16:18 | 32.70356 | -81.16100 | 37103 ft | 461 kts | 356° |
| 2026-05-08 16:19 | 32.76667 | -81.14644 | 37110 ft | 461 kts | 356° |
| 2026-05-08 16:19 | 32.82929 | -81.13196 | 37105 ft | 461 kts | 356° |
| 2026-05-08 16:20 | 32.89226 | -81.11739 | 37109 ft | 459 kts | 355° |
| 2026-05-08 16:20 | 32.95489 | -81.10287 | 37114 ft | 459 kts | 355° |
| 2026-05-08 16:21 | 33.01772 | -81.08829 | 37110 ft | 460 kts | 355° |
| 2026-05-08 16:21 | 33.08060 | -81.07367 | 37112 ft | 460 kts | 355° |
| 2026-05-08 16:22 | 33.14331 | -81.05907 | 37113 ft | 460 kts | 355° |
| 2026-05-08 16:22 | 33.20570 | -81.04452 | 37115 ft | 460 kts | 355° |
| 2026-05-08 16:23 | 33.26854 | -81.02985 | 37115 ft | 460 kts | 355° |
| 2026-05-08 16:23 | 33.33134 | -81.01517 | 37114 ft | 460 kts | 355° |
| 2026-05-08 16:24 | 33.39404 | -81.00048 | 37133 ft | 460 kts | 355° |
| 2026-05-08 16:24 | 33.45648 | -80.98584 | 37122 ft | 460 kts | 355° |
| 2026-05-08 16:25 | 33.51925 | -80.97110 | 37119 ft | 460 kts | 355° |
| 2026-05-08 16:25 | 33.58207 | -80.95632 | 37107 ft | 460 kts | 355° |
| 2026-05-08 16:26 | 33.64475 | -80.94156 | 37151 ft | 460 kts | 355° |
| 2026-05-08 16:26 | 33.70758 | -80.92674 | 37108 ft | 460 kts | 354° |
| 2026-05-08 16:27 | 33.77040 | -80.91189 | 37106 ft | 460 kts | 354° |
| 2026-05-08 16:27 | 33.83322 | -80.89704 | 37107 ft | 459 kts | 355° |
| 2026-05-08 16:28 | 33.89496 | -80.88557 | 37151 ft | 452 kts | 352° |
| 2026-05-08 16:28 | 33.95736 | -80.87424 | 37109 ft | 453 kts | 352° |
| 2026-05-08 16:29 | 34.01978 | -80.86281 | 37104 ft | 453 kts | 352° |
| 2026-05-08 16:29 | 34.08219 | -80.85136 | 37133 ft | 454 kts | 352° |
| 2026-05-08 16:30 | 34.14408 | -80.83998 | 37187 ft | 453 kts | 352° |
| 2026-05-08 16:30 | 34.20638 | -80.82872 | 37112 ft | 452 kts | 352° |
| 2026-05-08 16:31 | 34.26870 | -80.81744 | 37117 ft | 453 kts | 352° |
| 2026-05-08 16:31 | 34.33102 | -80.80615 | 37119 ft | 453 kts | 352° |
| 2026-05-08 16:32 | 34.39325 | -80.79485 | 37166 ft | 453 kts | 351° |
| 2026-05-08 16:32 | 34.45515 | -80.78359 | 37119 ft | 453 kts | 352° |
| 2026-05-08 16:33 | 34.51757 | -80.77223 | 37128 ft | 453 kts | 351° |
| 2026-05-08 16:33 | 34.58004 | -80.76084 | 37130 ft | 453 kts | 351° |
| 2026-05-08 16:34 | 34.64233 | -80.74946 | 37193 ft | 453 kts | 351° |
| 2026-05-08 16:34 | 34.70474 | -80.73804 | 37127 ft | 453 kts | 351° |
| 2026-05-08 16:35 | 34.76712 | -80.72661 | 37131 ft | 454 kts | 351° |
| 2026-05-08 16:35 | 34.82954 | -80.71516 | 37131 ft | 454 kts | 351° |
| 2026-05-08 16:36 | 34.89180 | -80.70372 | 37187 ft | 454 kts | 351° |
| 2026-05-08 16:36 | 34.95392 | -80.69228 | 37130 ft | 454 kts | 351° |
| 2026-05-08 16:37 | 35.01642 | -80.68076 | 37137 ft | 454 kts | 351° |
| 2026-05-08 16:37 | 35.07896 | -80.66922 | 37133 ft | 454 kts | 351° |
| 2026-05-08 16:38 | 35.14138 | -80.65768 | 37195 ft | 454 kts | 351° |
| 2026-05-08 16:38 | 35.20390 | -80.64610 | 37155 ft | 454 kts | 351° |
| 2026-05-08 16:39 | 35.26646 | -80.63450 | 37163 ft | 455 kts | 351° |
| 2026-05-08 16:39 | 35.32907 | -80.62286 | 37140 ft | 455 kts | 351° |
| 2026-05-08 16:40 | 35.39124 | -80.61130 | 37200 ft | 455 kts | 351° |
| 2026-05-08 16:40 | 35.45368 | -80.59966 | 37132 ft | 453 kts | 351° |
| 2026-05-08 16:41 | 35.51613 | -80.58800 | 37139 ft | 454 kts | 351° |
| 2026-05-08 16:42 | 35.60989 | -80.57047 | 37139 ft | 454 kts | 351° |
| 2026-05-08 16:42 | 35.67224 | -80.55879 | 37138 ft | 454 kts | 351° |
| 2026-05-08 16:43 | 35.73434 | -80.54714 | 37140 ft | 454 kts | 351° |
| 2026-05-08 16:43 | 35.79672 | -80.53540 | 37128 ft | 454 kts | 351° |
| 2026-05-08 16:44 | 35.85902 | -80.52368 | 37124 ft | 453 kts | 351° |
| 2026-05-08 16:44 | 35.92141 | -80.51191 | 37106 ft | 453 kts | 351° |
| 2026-05-08 16:45 | 35.98364 | -80.50016 | 37104 ft | 453 kts | 351° |
| 2026-05-08 16:45 | 36.04599 | -80.48837 | 37096 ft | 453 kts | 351° |
| 2026-05-08 16:46 | 36.10813 | -80.47659 | 37103 ft | 453 kts | 351° |
| 2026-05-08 16:46 | 36.17002 | -80.46484 | 37106 ft | 452 kts | 351° |
| 2026-05-08 16:47 | 36.23222 | -80.45303 | 37095 ft | 452 kts | 351° |
| 2026-05-08 16:47 | 36.29446 | -80.44118 | 37112 ft | 452 kts | 351° |
| 2026-05-08 16:48 | 36.35647 | -80.42936 | 37123 ft | 452 kts | 351° |
| 2026-05-08 16:48 | 36.41864 | -80.41728 | 37128 ft | 453 kts | 352° |
| 2026-05-08 16:49 | 36.48051 | -80.40467 | 37126 ft | 453 kts | 352° |
| 2026-05-08 16:49 | 36.54281 | -80.39203 | 37117 ft | 454 kts | 352° |
| 2026-05-08 16:50 | 36.60506 | -80.37939 | 37181 ft | 454 kts | 353° |
| 2026-05-08 16:50 | 36.66738 | -80.36670 | 37094 ft | 453 kts | 353° |
| 2026-05-08 16:51 | 36.71921 | -80.35614 | 37124 ft | 454 kts | 353° |
| 2026-05-08 16:51 | 36.78105 | -80.34700 | 37111 ft | 446 kts | 349° |
| 2026-05-08 16:52 | 36.84291 | -80.33833 | 37147 ft | 449 kts | 351° |
| 2026-05-08 16:52 | 36.90461 | -80.32946 | 37097 ft | 446 kts | 351° |
| 2026-05-08 16:53 | 36.99691 | -80.31623 | 37110 ft | 447 kts | 351° |
| 2026-05-08 16:53 | 37.05878 | -80.30733 | 37121 ft | 447 kts | 351° |
| 2026-05-08 16:54 | 37.12049 | -80.29844 | 37143 ft | 446 kts | 351° |
| 2026-05-08 16:54 | 37.18199 | -80.28957 | 37135 ft | 446 kts | 351° |
| 2026-05-08 16:55 | 37.24364 | -80.28067 | 37125 ft | 445 kts | 351° |
| 2026-05-08 16:55 | 37.30529 | -80.27175 | 37128 ft | 446 kts | 351° |
| 2026-05-08 16:56 | 37.36692 | -80.26282 | 37118 ft | 445 kts | 351° |
| 2026-05-08 16:56 | 37.42800 | -80.25395 | 37127 ft | 446 kts | 351° |
| 2026-05-08 16:57 | 37.48958 | -80.24499 | 37096 ft | 444 kts | 351° |
| 2026-05-08 16:57 | 37.55104 | -80.23605 | 37160 ft | 445 kts | 352° |
| 2026-05-08 16:58 | 37.61227 | -80.22713 | 37068 ft | 443 kts | 352° |
| 2026-05-08 16:58 | 37.67371 | -80.21804 | 37116 ft | 445 kts | 352° |
| 2026-05-08 16:59 | 37.73499 | -80.20892 | 37081 ft | 444 kts | 351° |
| 2026-05-08 16:59 | 37.79656 | -80.19974 | 37152 ft | 445 kts | 352° |
| 2026-05-08 17:00 | 37.85771 | -80.19061 | 37120 ft | 444 kts | 352° |
| 2026-05-08 17:00 | 37.91913 | -80.18143 | 37080 ft | 443 kts | 352° |
| 2026-05-08 17:01 | 37.97998 | -80.17231 | 37067 ft | 443 kts | 352° |
| 2026-05-08 17:01 | 38.04141 | -80.16311 | 37087 ft | 445 kts | 352° |
| 2026-05-08 17:02 | 38.10254 | -80.15391 | 37087 ft | 442 kts | 352° |
| 2026-05-08 17:02 | 38.16371 | -80.14471 | 37082 ft | 442 kts | 352° |
| 2026-05-08 17:03 | 38.22483 | -80.13549 | 37080 ft | 442 kts | 352° |
| 2026-05-08 17:03 | 38.28560 | -80.12631 | 37058 ft | 442 kts | 352° |
| 2026-05-08 17:04 | 38.34646 | -80.11712 | 37090 ft | 442 kts | 352° |
| 2026-05-08 17:04 | 38.37676 | -80.11452 | 37073 ft | 431 kts | 347° |
| 2026-05-08 17:04 | 38.40675 | -80.11327 | 37108 ft | 433 kts | 347° |
| 2026-05-08 17:05 | 38.46706 | -80.11007 | 37090 ft | 434 kts | 348° |
| 2026-05-08 17:05 | 38.52742 | -80.10663 | 37076 ft | 434 kts | 348° |
| 2026-05-08 17:06 | 38.58751 | -80.10315 | 37095 ft | 434 kts | 348° |
| 2026-05-08 17:06 | 38.64793 | -80.09963 | 37074 ft | 433 kts | 348° |
| 2026-05-08 17:07 | 38.70789 | -80.09615 | 37075 ft | 434 kts | 348° |
| 2026-05-08 17:07 | 38.76823 | -80.09264 | 37066 ft | 434 kts | 348° |
| 2026-05-08 17:08 | 38.82854 | -80.08914 | 37062 ft | 433 kts | 348° |
| 2026-05-08 17:08 | 38.88852 | -80.08565 | 37058 ft | 431 kts | 348° |
| 2026-05-08 17:09 | 38.94776 | -80.08683 | 37117 ft | 422 kts | 342° |
| 2026-05-08 17:09 | 39.00639 | -80.09113 | 37065 ft | 423 kts | 343° |
| 2026-05-08 17:10 | 39.06539 | -80.09505 | 37049 ft | 424 kts | 343° |
| 2026-05-08 17:10 | 39.12425 | -80.09889 | 37045 ft | 424 kts | 343° |
| 2026-05-08 17:11 | 39.18282 | -80.10268 | 37060 ft | 424 kts | 343° |
| 2026-05-08 17:11 | 39.24177 | -80.10650 | 37048 ft | 425 kts | 343° |
| 2026-05-08 17:12 | 39.30093 | -80.11034 | 37055 ft | 425 kts | 343° |
| 2026-05-08 17:12 | 39.35989 | -80.11417 | 37039 ft | 425 kts | 343° |
| 2026-05-08 17:13 | 39.41906 | -80.11802 | 37051 ft | 427 kts | 344° |
| 2026-05-08 17:13 | 39.47845 | -80.12189 | 37026 ft | 427 kts | 344° |
| 2026-05-08 17:14 | 39.53791 | -80.12578 | 37020 ft | 428 kts | 344° |
| 2026-05-08 17:14 | 39.59689 | -80.12963 | 37035 ft | 428 kts | 344° |
| 2026-05-08 17:15 | 39.65641 | -80.13353 | 37051 ft | 429 kts | 345° |
| 2026-05-08 17:15 | 39.71598 | -80.13744 | 37026 ft | 428 kts | 345° |
| 2026-05-08 17:16 | 39.77563 | -80.14137 | 37029 ft | 429 kts | 345° |
| 2026-05-08 17:16 | 39.83527 | -80.14530 | 37080 ft | 429 kts | 345° |
| 2026-05-08 17:17 | 39.89458 | -80.14921 | 37028 ft | 430 kts | 345° |
| 2026-05-08 17:17 | 39.95440 | -80.15316 | 37022 ft | 430 kts | 345° |
| 2026-05-08 17:18 | 40.01420 | -80.15713 | 37021 ft | 430 kts | 345° |
| 2026-05-08 17:18 | 40.07400 | -80.16109 | 37045 ft | 430 kts | 345° |
| 2026-05-08 17:19 | 40.13379 | -80.16506 | 37033 ft | 431 kts | 345° |
| 2026-05-08 17:19 | 40.19374 | -80.16905 | 37023 ft | 431 kts | 346° |
| 2026-05-08 17:20 | 40.25365 | -80.17305 | 37023 ft | 431 kts | 345° |
| 2026-05-08 17:20 | 40.31312 | -80.17702 | 36991 ft | 431 kts | 346° |
| 2026-05-08 17:21 | 40.37300 | -80.18103 | 36979 ft | 431 kts | 346° |
| 2026-05-08 17:21 | 40.43293 | -80.18504 | 36974 ft | 431 kts | 345° |
| 2026-05-08 17:22 | 40.49283 | -80.18907 | 36996 ft | 431 kts | 346° |
| 2026-05-08 17:22 | 40.55275 | -80.19310 | 36983 ft | 431 kts | 346° |
| 2026-05-08 17:23 | 40.61257 | -80.19713 | 36986 ft | 431 kts | 346° |
| 2026-05-08 17:23 | 40.67218 | -80.20116 | 36983 ft | 431 kts | 346° |
| 2026-05-08 17:24 | 40.73213 | -80.20521 | 37025 ft | 431 kts | 346° |
| 2026-05-08 17:24 | 40.79214 | -80.20927 | 37007 ft | 431 kts | 346° |
| 2026-05-08 17:25 | 40.82265 | -80.20718 | 36970 ft | 451 kts | 0° |
| 2026-05-08 17:25 | 40.85306 | -80.19468 | 37013 ft | 467 kts | 11° |
| 2026-05-08 17:25 | 40.91374 | -80.16260 | 36991 ft | 471 kts | 11° |
| 2026-05-08 17:26 | 40.97404 | -80.12972 | 36991 ft | 471 kts | 12° |
| 2026-05-08 17:26 | 41.03457 | -80.09640 | 36988 ft | 471 kts | 12° |
| 2026-05-08 17:27 | 41.09502 | -80.06306 | 36973 ft | 471 kts | 12° |
| 2026-05-08 17:27 | 41.15560 | -80.02957 | 37009 ft | 472 kts | 12° |
| 2026-05-08 17:28 | 41.21609 | -79.99606 | 36963 ft | 471 kts | 12° |
| 2026-05-08 17:28 | 41.27664 | -79.96246 | 36963 ft | 471 kts | 12° |
| 2026-05-08 17:29 | 41.33677 | -79.92902 | 36992 ft | 472 kts | 13° |
| 2026-05-08 17:29 | 41.39737 | -79.89525 | 36981 ft | 471 kts | 12° |
| 2026-05-08 17:30 | 41.45782 | -79.86150 | 36971 ft | 471 kts | 12° |
| 2026-05-08 17:30 | 41.51841 | -79.82760 | 36681 ft | 471 kts | 12° |
| 2026-05-08 17:31 | 41.54877 | -79.81061 | 35716 ft | 477 kts | 12° |
| 2026-05-08 17:31 | 41.57909 | -79.79356 | 35333 ft | 469 kts | 12° |
| 2026-05-08 17:31 | 41.60910 | -79.77672 | 34774 ft | 466 kts | 12° |
| 2026-05-08 17:31 | 41.63888 | -79.75999 | 34188 ft | 464 kts | 12° |
| 2026-05-08 17:32 | 41.66822 | -79.74348 | 33524 ft | 462 kts | 12° |
| 2026-05-08 17:32 | 41.69785 | -79.72678 | 32754 ft | 462 kts | 12° |
| 2026-05-08 17:32 | 41.72751 | -79.71006 | 31937 ft | 463 kts | 12° |
| 2026-05-08 17:32 | 41.75730 | -79.69325 | 31101 ft | 466 kts | 13° |
| 2026-05-08 17:33 | 41.78709 | -79.67642 | 30266 ft | 468 kts | 13° |
| 2026-05-08 17:33 | 41.81724 | -79.65937 | 29380 ft | 469 kts | 13° |
| 2026-05-08 17:33 | 41.84718 | -79.64243 | 28679 ft | 466 kts | 13° |
| 2026-05-08 17:33 | 41.87693 | -79.62557 | 28018 ft | 461 kts | 14° |
| 2026-05-08 17:34 | 41.90636 | -79.60888 | 27393 ft | 457 kts | 14° |
| 2026-05-08 17:34 | 41.93553 | -79.59231 | 26819 ft | 453 kts | 14° |
| 2026-05-08 17:34 | 41.96441 | -79.57590 | 26240 ft | 448 kts | 14° |
| 2026-05-08 17:34 | 41.99291 | -79.55969 | 25686 ft | 444 kts | 14° |
| 2026-05-08 17:35 | 42.02089 | -79.54375 | 25143 ft | 440 kts | 14° |
| 2026-05-08 17:35 | 42.04895 | -79.52776 | 24653 ft | 435 kts | 14° |
| 2026-05-08 17:35 | 42.07676 | -79.51190 | 24120 ft | 432 kts | 14° |
| 2026-05-08 17:35 | 42.10428 | -79.49618 | 23612 ft | 428 kts | 14° |
| 2026-05-08 17:36 | 42.13161 | -79.48056 | 23059 ft | 424 kts | 14° |
| 2026-05-08 17:36 | 42.15871 | -79.46506 | 22486 ft | 420 kts | 14° |
| 2026-05-08 17:36 | 42.18551 | -79.44970 | 21936 ft | 416 kts | 14° |
| 2026-05-08 17:36 | 42.21210 | -79.43446 | 21429 ft | 413 kts | 14° |
| 2026-05-08 17:37 | 42.23831 | -79.41943 | 20963 ft | 409 kts | 14° |
| 2026-05-08 17:37 | 42.26440 | -79.40444 | 20477 ft | 406 kts | 14° |
| 2026-05-08 17:37 | 42.28993 | -79.38977 | 19995 ft | 402 kts | 14° |
| 2026-05-08 17:37 | 42.31559 | -79.37501 | 19508 ft | 399 kts | 14° |
| 2026-05-08 17:38 | 42.34103 | -79.36036 | 19036 ft | 396 kts | 14° |
| 2026-05-08 17:38 | 42.36629 | -79.34581 | 18565 ft | 393 kts | 14° |
| 2026-05-08 17:38 | 42.39134 | -79.33137 | 18076 ft | 390 kts | 14° |
| 2026-05-08 17:38 | 42.41619 | -79.31702 | 17560 ft | 387 kts | 14° |
| 2026-05-08 17:39 | 42.44088 | -79.30276 | 17029 ft | 385 kts | 14° |
| 2026-05-08 17:39 | 42.46537 | -79.28860 | 16522 ft | 382 kts | 14° |
| 2026-05-08 17:39 | 42.48981 | -79.27450 | 16073 ft | 379 kts | 14° |
| 2026-05-08 17:39 | 42.51246 | -79.25697 | 16083 ft | 389 kts | 30° |
| 2026-05-08 17:40 | 42.53114 | -79.22997 | 15832 ft | 395 kts | 48° |
| 2026-05-08 17:40 | 42.54668 | -79.19949 | 15446 ft | 392 kts | 50° |
| 2026-05-08 17:40 | 42.56204 | -79.16895 | 15025 ft | 390 kts | 50° |
| 2026-05-08 17:40 | 42.57735 | -79.13872 | 14617 ft | 387 kts | 50° |
| 2026-05-08 17:41 | 42.59263 | -79.10878 | 14215 ft | 384 kts | 50° |
| 2026-05-08 17:41 | 42.60783 | -79.07916 | 13822 ft | 382 kts | 50° |
| 2026-05-08 17:41 | 42.62299 | -79.04987 | 13393 ft | 379 kts | 50° |
| 2026-05-08 17:41 | 42.63300 | -79.03055 | 13096 ft | 377 kts | 50° |
| 2026-05-08 17:42 | 42.64818 | -79.00142 | 12657 ft | 375 kts | 50° |
| 2026-05-08 17:42 | 42.66813 | -78.96337 | 12086 ft | 372 kts | 50° |
| 2026-05-08 17:42 | 42.68317 | -78.93487 | 11666 ft | 369 kts | 50° |
| 2026-05-08 17:42 | 42.69328 | -78.91581 | 11399 ft | 368 kts | 50° |
| 2026-05-08 17:43 | 42.70833 | -78.88785 | 10998 ft | 365 kts | 50° |
| 2026-05-08 17:43 | 42.72336 | -78.86020 | 10590 ft | 362 kts | 50° |
| 2026-05-08 17:43 | 42.73821 | -78.83306 | 10172 ft | 351 kts | 50° |
| 2026-05-08 17:43 | 42.75238 | -78.80721 | 9776 ft | 339 kts | 50° |
| 2026-05-08 17:44 | 42.76645 | -78.78164 | 9335 ft | 328 kts | 50° |
| 2026-05-08 17:44 | 42.77963 | -78.75764 | 8890 ft | 318 kts | 50° |
| 2026-05-08 17:44 | 42.79273 | -78.73386 | 8478 ft | 309 kts | 50° |
| 2026-05-08 17:44 | 42.80549 | -78.71073 | 8052 ft | 303 kts | 50° |
| 2026-05-08 17:45 | 42.81806 | -78.68798 | 7651 ft | 299 kts | 50° |
| 2026-05-08 17:45 | 42.83048 | -78.66551 | 7225 ft | 296 kts | 50° |
| 2026-05-08 17:45 | 42.84284 | -78.64319 | 6818 ft | 294 kts | 50° |
| 2026-05-08 17:45 | 42.85512 | -78.62110 | 6420 ft | 291 kts | 50° |
| 2026-05-08 17:46 | 42.86735 | -78.59928 | 6010 ft | 287 kts | 49° |
| 2026-05-08 17:46 | 42.87958 | -78.57800 | 5608 ft | 283 kts | 50° |
| 2026-05-08 17:46 | 42.89172 | -78.55709 | 5195 ft | 278 kts | 49° |
| 2026-05-08 17:46 | 42.90360 | -78.53649 | 4791 ft | 275 kts | 49° |
| 2026-05-08 17:47 | 42.91529 | -78.51612 | 4389 ft | 271 kts | 49° |
| 2026-05-08 17:47 | 42.92680 | -78.49613 | 4057 ft | 265 kts | 47° |
| 2026-05-08 17:47 | 42.93861 | -78.47801 | 4044 ft | 247 kts | 44° |
| 2026-05-08 17:47 | 42.94970 | -78.46151 | 4007 ft | 233 kts | 44° |
| 2026-05-08 17:48 | 42.96057 | -78.44526 | 4012 ft | 231 kts | 44° |
| 2026-05-08 17:48 | 42.97150 | -78.42913 | 4000 ft | 231 kts | 44° |
| 2026-05-08 17:48 | 42.98239 | -78.41300 | 3983 ft | 231 kts | 45° |
| 2026-05-08 17:48 | 42.99438 | -78.39873 | 3969 ft | 226 kts | 23° |
| 2026-05-08 17:49 | 43.00920 | -78.39462 | 3942 ft | 215 kts | 348° |
| 2026-05-08 17:49 | 43.02260 | -78.40215 | 3976 ft | 209 kts | 319° |
| 2026-05-08 17:49 | 43.03351 | -78.41519 | 4092 ft | 210 kts | 314° |
| 2026-05-08 17:49 | 43.04429 | -78.42884 | 4082 ft | 211 kts | 314° |
| 2026-05-08 17:50 | 43.05497 | -78.44244 | 4002 ft | 210 kts | 314° |
| 2026-05-08 17:50 | 43.06567 | -78.45611 | 4029 ft | 211 kts | 314° |
| 2026-05-08 17:50 | 43.07623 | -78.47005 | 3985 ft | 210 kts | 306° |
| 2026-05-08 17:50 | 43.08146 | -78.48804 | 3964 ft | 204 kts | 276° |
| 2026-05-08 17:51 | 43.08186 | -78.50756 | 3999 ft | 206 kts | 270° |
| 2026-05-08 17:51 | 43.08162 | -78.52725 | 3996 ft | 207 kts | 265° |
| 2026-05-08 17:51 | 43.07691 | -78.54528 | 3984 ft | 199 kts | 239° |
| 2026-05-08 17:51 | 43.06845 | -78.55994 | 4020 ft | 196 kts | 230° |
| 2026-05-08 17:52 | 43.05905 | -78.57311 | 3811 ft | 190 kts | 227° |
| 2026-05-08 17:52 | 43.04966 | -78.58572 | 3573 ft | 189 kts | 227° |
| 2026-05-08 17:52 | 43.03087 | -78.61051 | 3100 ft | 187 kts | 228° |
| 2026-05-08 17:53 | 43.02160 | -78.62285 | 2848 ft | 185 kts | 227° |
| 2026-05-08 17:53 | 43.01230 | -78.63513 | 2606 ft | 186 kts | 227° |
| 2026-05-08 17:53 | 43.00297 | -78.64732 | 2345 ft | 185 kts | 226° |
| 2026-05-08 17:53 | 42.99422 | -78.65880 | 2115 ft | 170 kts | 228° |
| 2026-05-08 17:54 | 42.98585 | -78.66985 | 1846 ft | 166 kts | 227° |
| 2026-05-08 17:54 | 42.97778 | -78.68048 | 1647 ft | 158 kts | 227° |
| 2026-05-08 17:54 | 42.97016 | -78.69051 | 1402 ft | 144 kts | 227° |
| 2026-05-08 17:54 | 42.96301 | -78.69990 | 1215 ft | 142 kts | 227° |
| 2026-05-08 17:55 | 42.95591 | -78.70926 | 946 ft | 142 kts | 226° |
| 2026-05-08 17:55 | 42.94889 | -78.71851 | 752 ft | 138 kts | 225° |
| 2026-05-08 17:55 | 42.94268 | -78.72663 | 719 ft | 98 kts | 224° |
| 2026-05-08 17:55 | 42.93869 | -78.73185 | 719 ft | 69 kts | 224° |
| 2026-05-08 17:56 | 42.93781 | -78.73287 | 723 ft | 4 kts | 177° |
| 2026-05-08 17:56 | 42.93729 | -78.73278 | 721 ft | 12 kts | 165° |
| 2026-05-08 17:56 | 42.93709 | -78.73168 | 720 ft | 17 kts | 65° |
| 2026-05-08 17:56 | 42.93701 | -78.73085 | 717 ft | 0 kts | 134° |
| 2026-05-08 17:58 | 42.93696 | -78.73079 | 714 ft | 5 kts | 134° |
| 2026-05-08 17:58 | 42.93666 | -78.73037 | 712 ft | 2 kts | 134° |
| 2026-05-08 17:58 | 42.93661 | -78.73030 | 712 ft | 0 kts | 134° |